createdAt,value
2018-08-10T00:01:36.084Z,2.00
2018-08-10T00:04:04.740Z,2.00
2018-08-10T00:06:33.741Z,2.00
2018-08-10T00:09:03.253Z,1.80
2018-08-10T00:11:32.882Z,1.60
2018-08-10T00:14:01.501Z,1.90
2018-08-10T00:16:30.447Z,2.30
2018-08-10T00:18:59.421Z,1.80
2018-08-10T00:21:28.415Z,2.47
2018-08-10T00:23:57.099Z,2.00
2018-08-10T00:26:25.744Z,2.03
2018-08-10T00:28:54.729Z,1.85
2018-08-10T00:31:23.377Z,1.93
2018-08-10T00:33:52.279Z,2.15
2018-08-10T00:36:28.051Z,1.80
2018-08-10T00:38:56.718Z,1.70
2018-08-10T00:41:25.399Z,2.03
2018-08-10T00:43:54.417Z,1.70
2018-08-10T00:46:23.385Z,1.75
2018-08-10T00:48:52.242Z,1.83
2018-08-10T00:51:21.730Z,1.70
2018-08-10T00:53:50.393Z,1.90
2018-08-10T00:56:19.742Z,1.62
2018-08-10T00:58:48.710Z,1.82
2018-08-10T01:01:18.024Z,1.70
2018-08-10T01:03:47.395Z,1.60
2018-08-10T01:06:16.001Z,1.60
2018-08-10T01:08:45.078Z,1.70
2018-08-10T01:11:14.005Z,1.65
2018-08-10T01:13:42.977Z,1.65
2018-08-10T01:16:12.109Z,1.67
2018-08-10T01:18:40.758Z,1.67
2018-08-10T01:21:10.142Z,1.57
2018-08-10T01:23:39.064Z,1.40
2018-08-10T01:26:07.750Z,1.53
2018-08-10T01:28:36.839Z,1.47
2018-08-10T01:31:05.984Z,1.40
2018-08-10T01:33:34.782Z,1.33
2018-08-10T01:36:04.106Z,1.67
2018-08-10T01:38:33.083Z,1.60
2018-08-10T01:41:02.490Z,1.60
2018-08-10T01:43:31.442Z,1.47
2018-08-10T01:46:00.410Z,1.40
2018-08-10T01:48:29.702Z,1.30
2018-08-10T01:50:58.726Z,1.50
2018-08-10T01:53:27.666Z,1.27
2018-08-10T01:55:56.579Z,1.40
2018-08-10T01:58:25.869Z,1.20
2018-08-10T02:00:54.816Z,1.42
2018-08-10T02:03:23.838Z,1.47
2018-08-10T02:05:52.889Z,1.30
2018-08-10T02:08:21.829Z,1.20
2018-08-10T02:10:50.823Z,1.50
2018-08-10T02:13:19.922Z,1.30
2018-08-10T02:15:48.540Z,1.70
2018-08-10T02:18:17.531Z,1.40
2018-08-10T02:20:46.619Z,1.40
2018-08-10T02:23:15.929Z,1.32
2018-08-10T02:25:44.875Z,1.35
2018-08-10T02:28:13.953Z,1.27
2018-08-10T02:30:43.048Z,1.40
2018-08-10T02:33:12.348Z,1.30
2018-08-10T02:35:42.185Z,1.35
2018-08-10T02:38:11.113Z,1.25
2018-08-10T02:40:39.941Z,1.37
2018-08-10T02:43:09.010Z,1.55
2018-08-10T02:45:37.999Z,1.35
2018-08-10T02:48:07.049Z,1.22
2018-08-10T02:50:36.184Z,1.20
2018-08-10T02:53:05.126Z,1.50
2018-08-10T02:55:33.872Z,1.33
2018-08-10T02:58:03.347Z,1.30
2018-08-10T03:00:32.274Z,1.27
2018-08-10T03:03:01.290Z,1.45
2018-08-10T03:05:30.362Z,1.30
2018-08-10T03:07:59.317Z,1.32
2018-08-10T03:10:28.354Z,1.40
2018-08-10T03:12:57.273Z,1.35
2018-08-10T03:15:26.352Z,1.52
2018-08-10T03:17:55.372Z,1.20
2018-08-10T03:20:24.725Z,1.35
2018-08-10T03:22:53.999Z,1.25
2018-08-10T03:25:22.920Z,1.20
2018-08-10T03:27:51.553Z,1.20
2018-08-10T03:30:20.561Z,1.30
2018-08-10T03:32:49.951Z,1.40
2018-08-10T03:35:18.987Z,1.30
2018-08-10T03:37:48.273Z,1.05
2018-08-10T03:40:17.929Z,1.30
2018-08-10T03:42:46.914Z,1.20
2018-08-10T03:45:15.997Z,1.10
2018-08-10T03:47:44.929Z,1.20
2018-08-10T03:50:14.520Z,1.20
2018-08-10T03:52:44.275Z,1.20
2018-08-10T03:55:13.271Z,1.22
2018-08-10T03:57:42.409Z,1.25
2018-08-10T04:00:13.812Z,1.17
2018-08-10T04:02:42.933Z,1.17
2018-08-10T04:05:12.701Z,1.30
2018-08-10T04:07:41.955Z,0.98
2018-08-10T04:10:11.664Z,1.35
2018-08-10T04:12:40.643Z,1.25
2018-08-10T04:15:13.041Z,1.20
2018-08-10T04:17:42.561Z,1.25
2018-08-10T04:20:11.623Z,1.30
2018-08-10T04:22:40.897Z,1.30
2018-08-10T04:25:10.066Z,1.30
2018-08-10T04:27:39.355Z,1.10
2018-08-10T04:30:09.648Z,1.20
2018-08-10T04:32:38.660Z,1.15
2018-08-10T04:35:08.254Z,1.00
2018-08-10T04:37:37.236Z,1.10
2018-08-10T04:40:07.996Z,1.17
2018-08-10T04:42:36.998Z,1.17
2018-08-10T04:45:06.882Z,1.00
2018-08-10T04:47:36.168Z,0.88
2018-08-10T04:50:05.254Z,1.00
2018-08-10T04:52:34.637Z,1.00
2018-08-10T04:55:03.783Z,1.07
2018-08-10T04:57:33.007Z,1.10
2018-08-10T05:00:02.544Z,0.98
2018-08-10T05:02:31.477Z,1.10
2018-08-10T05:05:00.475Z,0.98
2018-08-10T05:07:29.585Z,0.85
2018-08-10T05:09:58.650Z,0.90
2018-08-10T05:12:27.865Z,0.90
2018-08-10T05:14:56.765Z,0.88
2018-08-10T05:17:26.075Z,0.98
2018-08-10T05:19:55.006Z,1.10
2018-08-10T05:22:24.573Z,1.05
2018-08-10T05:24:53.559Z,1.02
2018-08-10T05:27:22.832Z,1.00
2018-08-10T05:29:51.934Z,1.00
2018-08-10T05:32:20.863Z,0.70
2018-08-10T05:34:49.901Z,0.60
2018-08-10T05:37:19.364Z,0.90
2018-08-10T05:39:48.485Z,0.70
2018-08-10T05:42:18.368Z,0.80
2018-08-10T05:44:47.671Z,0.60
2018-08-10T05:47:16.984Z,0.40
2018-08-10T05:49:46.180Z,0.40
2018-08-10T05:52:15.456Z,0.50
2018-08-10T05:54:44.388Z,0.50
2018-08-10T05:57:13.342Z,0.50
2018-08-10T05:59:42.316Z,0.45
2018-08-10T06:02:11.641Z,0.40
2018-08-10T06:04:40.804Z,0.40
2018-08-10T06:07:09.744Z,0.50
2018-08-10T06:09:39.058Z,0.40
2018-08-10T06:12:08.263Z,0.30
2018-08-10T06:14:37.348Z,0.70
2018-08-10T06:17:06.390Z,0.40
2018-08-10T06:19:35.416Z,0.40
2018-08-10T06:22:04.781Z,0.40
2018-08-10T06:24:33.876Z,0.30
2018-08-10T06:27:02.830Z,0.30
2018-08-10T06:29:31.810Z,0.40
2018-08-10T06:32:01.211Z,1.00
2018-08-10T06:34:30.171Z,0.33
2018-08-10T06:36:59.154Z,0.42
2018-08-10T06:39:28.133Z,0.60
2018-08-10T06:41:57.066Z,0.50
2018-08-10T06:44:25.993Z,0.55
2018-08-10T06:46:54.987Z,0.53
2018-08-10T06:49:23.991Z,0.50
2018-08-10T06:51:53.123Z,0.55
2018-08-10T06:54:22.391Z,0.80
2018-08-10T06:56:51.363Z,0.50
2018-08-10T06:59:20.329Z,0.40
2018-08-10T07:01:49.381Z,0.40
2018-08-10T07:04:18.326Z,0.40
2018-08-10T07:06:47.347Z,0.40
2018-08-10T07:09:16.295Z,0.50
2018-08-10T07:11:45.221Z,0.40
2018-08-10T07:14:14.184Z,0.53
2018-08-10T07:16:43.444Z,0.55
2018-08-10T07:19:12.372Z,0.60
2018-08-10T07:21:41.013Z,0.47
2018-08-10T07:24:09.951Z,0.50
2018-08-10T07:26:38.885Z,0.60
2018-08-10T07:29:07.923Z,0.70
2018-08-10T07:31:36.944Z,0.70
2018-08-10T07:34:06.132Z,1.00
2018-08-10T07:36:35.228Z,0.60
2018-08-10T07:39:06.190Z,0.70
2018-08-10T07:41:35.251Z,0.72
2018-08-10T07:44:04.356Z,0.80
2018-08-10T07:46:33.427Z,0.70
2018-08-10T07:49:02.602Z,0.70
2018-08-10T07:51:31.611Z,0.60
2018-08-10T07:54:00.374Z,0.50
2018-08-10T07:56:29.460Z,0.90
2018-08-10T07:58:58.217Z,0.50
2018-08-10T08:01:27.754Z,0.60
2018-08-10T08:03:56.939Z,0.60
2018-08-10T08:06:25.640Z,0.50
2018-08-10T08:08:54.435Z,0.60
2018-08-10T08:11:23.852Z,0.50
2018-08-10T08:13:52.926Z,0.50
2018-08-10T08:16:22.142Z,0.80
2018-08-10T08:18:51.139Z,0.50
2018-08-10T08:21:20.411Z,0.60
2018-08-10T08:23:49.227Z,0.60
2018-08-10T08:26:18.455Z,0.50
2018-08-10T08:28:47.137Z,0.60
2018-08-10T08:31:15.833Z,0.50
2018-08-10T08:33:55.847Z,0.67
2018-08-10T08:36:31.191Z,0.60
2018-08-10T08:40:15.390Z,0.50
2018-08-10T08:42:45.585Z,0.40
2018-08-10T08:46:23.218Z,0.70
2018-08-10T08:48:52.821Z,0.60
2018-08-10T08:51:26.625Z,0.63
2018-08-10T08:54:06.733Z,0.53
2018-08-10T08:56:44.574Z,0.80
2018-08-10T08:59:15.374Z,0.70
2018-08-10T09:01:44.527Z,0.40
2018-08-10T09:04:27.598Z,0.90
2018-08-10T09:06:56.595Z,0.72
2018-08-10T09:09:36.597Z,0.90
2018-08-10T09:12:05.884Z,0.85
2018-08-10T09:14:48.389Z,0.70
2018-08-10T09:17:17.559Z,1.13
2018-08-10T09:19:46.668Z,1.10
2018-08-10T09:22:15.418Z,0.90
2018-08-10T09:24:44.747Z,1.00
2018-08-10T09:27:13.865Z,1.07
2018-08-10T09:29:43.010Z,1.32
2018-08-10T09:32:12.406Z,0.93
2018-08-10T09:34:41.450Z,1.12
2018-08-10T09:37:10.840Z,1.12
2018-08-10T09:39:39.568Z,1.40
2018-08-10T09:42:08.864Z,1.07
2018-08-10T09:44:38.102Z,1.10
2018-08-10T09:47:08.294Z,1.10
2018-08-10T09:49:44.961Z,1.10
2018-08-10T09:52:14.008Z,1.20
2018-08-10T09:55:25.620Z,1.00
2018-08-10T09:57:56.141Z,0.98
2018-08-10T10:00:30.464Z,1.30
2018-08-10T10:03:05.294Z,1.20
2018-08-10T10:05:34.414Z,1.25
2018-08-10T10:08:03.422Z,1.27
2018-08-10T10:10:32.470Z,1.20
2018-08-10T10:13:01.592Z,1.20
2018-08-10T10:15:30.459Z,1.90
2018-08-10T10:17:59.636Z,1.00
2018-08-10T10:20:29.123Z,1.27
2018-08-10T10:22:58.282Z,1.42
2018-08-10T10:25:27.245Z,1.15
2018-08-10T10:27:56.226Z,0.98
2018-08-10T10:30:25.307Z,1.55
2018-08-10T10:32:54.308Z,1.10
2018-08-10T10:35:23.327Z,1.10
2018-08-10T10:37:52.422Z,1.27
2018-08-10T10:40:21.145Z,1.20
2018-08-10T10:42:50.239Z,1.27
2018-08-10T10:45:19.408Z,1.30
2018-08-10T10:47:48.690Z,1.40
2018-08-10T10:50:18.207Z,1.53
2018-08-10T10:52:47.414Z,1.53
2018-08-10T10:55:16.531Z,1.27
2018-08-10T10:57:45.890Z,1.10
2018-08-10T11:00:16.549Z,1.20
2018-08-10T11:02:46.123Z,1.20
2018-08-10T11:05:14.839Z,1.23
2018-08-10T11:07:43.527Z,1.20
2018-08-10T11:10:13.749Z,1.50
2018-08-10T11:12:43.055Z,1.30
2018-08-10T11:15:12.517Z,1.40
2018-08-10T11:17:41.623Z,1.40
2018-08-10T11:20:11.758Z,1.32
2018-08-10T11:22:41.463Z,1.30
2018-08-10T11:25:11.843Z,1.43
2018-08-10T11:27:41.693Z,1.40
2018-08-10T11:30:11.044Z,1.20
2018-08-10T11:32:40.307Z,1.20
2018-08-10T11:35:09.664Z,1.33
2018-08-10T11:37:38.696Z,1.55
2018-08-10T11:40:10.638Z,1.55
2018-08-10T11:42:39.663Z,1.27
2018-08-10T11:45:11.010Z,1.43
2018-08-10T11:47:40.471Z,1.12
2018-08-10T11:50:09.599Z,1.40
2018-08-10T11:52:38.834Z,1.67
2018-08-10T11:55:10.332Z,1.20
2018-08-10T11:57:39.256Z,1.10
2018-08-10T12:00:09.914Z,1.30
2018-08-10T12:02:39.958Z,1.07
2018-08-10T12:05:10.088Z,0.95
2018-08-10T12:07:39.004Z,0.90
2018-08-10T12:10:08.461Z,1.10
2018-08-10T12:12:37.643Z,1.10
2018-08-10T12:15:08.486Z,1.10
2018-08-10T12:17:38.036Z,1.00
2018-08-10T12:20:07.364Z,1.35
2018-08-10T12:22:36.188Z,0.90
2018-08-10T12:25:05.526Z,0.77
2018-08-10T12:27:34.853Z,1.10
2018-08-10T12:30:04.123Z,1.00
2018-08-10T12:32:32.929Z,1.20
2018-08-10T12:35:02.024Z,0.70
2018-08-10T12:37:31.214Z,0.90
2018-08-10T12:39:59.992Z,0.90
2018-08-10T12:42:28.772Z,1.27
2018-08-10T12:44:57.854Z,0.80
2018-08-10T12:47:26.678Z,0.80
2018-08-10T12:49:55.800Z,0.73
2018-08-10T12:52:24.478Z,0.77
2018-08-10T12:54:53.200Z,0.80
2018-08-10T12:57:21.907Z,0.90
2018-08-10T12:59:50.598Z,0.80
2018-08-10T13:02:19.471Z,1.10
2018-08-10T13:04:48.259Z,0.70
2018-08-10T13:07:16.987Z,0.90
2018-08-10T13:09:46.112Z,0.70
2018-08-10T13:12:15.037Z,0.90
2018-08-10T13:14:43.856Z,0.63
2018-08-10T13:17:12.839Z,0.70
2018-08-10T13:19:42.012Z,0.80
2018-08-10T13:22:10.732Z,0.70
2018-08-10T13:24:39.429Z,0.80
2018-08-10T13:27:08.545Z,0.73
2018-08-10T13:29:37.641Z,1.10
2018-08-10T13:32:06.463Z,1.00
2018-08-10T13:34:35.102Z,0.73
2018-08-10T13:37:04.197Z,1.00
2018-08-10T13:39:33.293Z,0.87
2018-08-10T13:42:02.252Z,0.67
2018-08-10T13:44:31.374Z,0.83
2018-08-10T13:47:00.035Z,0.90
2018-08-10T13:49:28.685Z,0.70
2018-08-10T13:51:57.790Z,0.80
2018-08-10T13:54:26.471Z,0.67
2018-08-10T13:56:55.504Z,0.83
2018-08-10T13:59:24.308Z,0.80
2018-08-10T14:01:53.107Z,0.83
2018-08-10T14:04:21.975Z,0.80
2018-08-10T14:06:51.410Z,0.70
2018-08-10T14:09:20.280Z,1.00
2018-08-10T14:11:49.000Z,0.90
2018-08-10T14:14:18.051Z,0.80
2018-08-10T14:16:47.161Z,0.80
2018-08-10T14:19:16.305Z,0.70
2018-08-10T14:21:44.962Z,0.97
2018-08-10T14:24:13.710Z,0.90
2018-08-10T14:26:43.516Z,0.73
2018-08-10T14:29:12.231Z,0.90
2018-08-10T14:31:40.908Z,0.70
2018-08-10T14:34:09.575Z,0.80
2018-08-10T14:36:38.367Z,0.80
2018-08-10T14:39:10.034Z,0.77
2018-08-10T14:41:38.788Z,0.90
2018-08-10T14:44:07.722Z,0.70
2018-08-10T14:46:36.876Z,0.83
2018-08-10T14:49:07.051Z,1.10
2018-08-10T14:51:35.695Z,0.80
2018-08-10T14:54:04.606Z,0.70
2018-08-10T14:56:33.259Z,1.00
2018-08-10T14:59:02.039Z,0.80
2018-08-10T15:01:30.862Z,0.83
2018-08-10T15:03:59.647Z,0.73
2018-08-10T15:06:28.320Z,0.90
2018-08-10T15:08:57.907Z,0.93
2018-08-10T15:11:26.731Z,0.87
2018-08-10T15:13:55.583Z,0.83
2018-08-10T15:16:24.593Z,0.83
2018-08-10T15:18:53.274Z,0.80
2018-08-10T15:21:22.028Z,1.40
2018-08-10T15:23:50.734Z,0.60
2018-08-10T15:26:19.467Z,0.80
2018-08-10T15:28:48.141Z,0.60
2018-08-10T15:31:17.269Z,0.80
2018-08-10T15:33:45.989Z,0.80
2018-08-10T15:36:15.082Z,0.60
2018-08-10T15:38:44.124Z,0.67
2018-08-10T15:41:12.846Z,0.63
2018-08-10T15:43:41.734Z,0.63
2018-08-10T15:46:10.971Z,0.90
2018-08-10T15:48:39.748Z,0.87
2018-08-10T15:51:08.401Z,0.90
2018-08-10T15:53:37.461Z,1.70
2018-08-10T15:56:06.370Z,0.70
2018-08-10T15:58:35.514Z,0.70
2018-08-10T16:01:04.201Z,0.80
2018-08-10T16:03:33.206Z,0.80
2018-08-10T16:06:01.841Z,0.60
2018-08-10T16:08:30.980Z,2.67
2018-08-10T16:10:59.991Z,0.80
2018-08-10T16:13:28.783Z,1.93
2018-08-10T16:15:57.558Z,0.70
2018-08-10T16:18:26.236Z,0.60
2018-08-10T16:20:54.936Z,0.70
2018-08-10T16:23:23.948Z,0.50
2018-08-10T16:25:52.636Z,0.80
2018-08-10T16:28:21.347Z,0.60
2018-08-10T16:30:50.423Z,0.80
2018-08-10T16:33:19.139Z,0.70
2018-08-10T16:35:47.950Z,0.70
2018-08-10T16:38:16.639Z,0.60
2018-08-10T16:40:45.695Z,0.80
2018-08-10T16:43:14.689Z,0.90
2018-08-10T16:45:43.399Z,0.90
2018-08-10T16:48:12.103Z,0.90
2018-08-10T16:50:40.828Z,0.83
2018-08-10T16:53:10.597Z,0.90
2018-08-10T16:55:39.665Z,1.00
2018-08-10T16:58:08.612Z,2.30
2018-08-10T17:00:37.398Z,0.70
2018-08-10T17:03:06.661Z,0.80
2018-08-10T17:05:35.369Z,1.00
2018-08-10T17:08:04.066Z,0.60
2018-08-10T17:10:33.055Z,0.70
2018-08-10T17:13:01.828Z,0.50
2018-08-10T17:15:30.543Z,0.50
2018-08-10T17:17:59.306Z,0.60
2018-08-10T17:21:00.772Z,0.80
2018-08-10T17:23:29.423Z,0.60
2018-08-10T17:25:58.294Z,0.80
2018-08-10T17:28:26.959Z,0.80
2018-08-10T17:30:55.637Z,0.70
2018-08-10T17:33:24.291Z,0.80
2018-08-10T17:35:53.017Z,0.70
2018-08-10T17:38:22.424Z,0.90
2018-08-10T17:40:51.169Z,0.80
2018-08-10T17:43:19.857Z,0.80
2018-08-10T17:45:48.492Z,0.70
2018-08-10T17:48:17.189Z,0.80
2018-08-10T17:50:46.437Z,0.70
2018-08-10T17:53:15.109Z,0.83
2018-08-10T17:55:43.919Z,0.60
2018-08-10T17:58:13.037Z,0.80
2018-08-10T18:00:42.075Z,0.90
2018-08-10T18:03:10.735Z,0.67
2018-08-10T18:05:39.372Z,0.90
2018-08-10T18:08:08.591Z,1.10
2018-08-10T18:10:37.249Z,0.90
2018-08-10T18:13:06.553Z,1.10
2018-08-10T18:15:35.247Z,1.07
2018-08-10T18:18:03.988Z,1.10
2018-08-10T18:20:33.039Z,0.93
2018-08-10T18:23:01.704Z,1.07
2018-08-10T18:25:30.818Z,1.20
2018-08-10T18:27:59.577Z,0.80
2018-08-10T18:30:28.509Z,1.00
2018-08-10T18:32:57.244Z,0.90
2018-08-10T18:35:26.102Z,1.00
2018-08-10T18:37:54.834Z,0.90
2018-08-10T18:40:23.620Z,1.10
2018-08-10T18:42:52.354Z,1.00
2018-08-10T18:45:22.158Z,0.97
2018-08-10T18:47:51.319Z,1.07
2018-08-10T18:50:20.776Z,1.50
2018-08-10T18:52:49.740Z,1.30
2018-08-10T18:55:20.276Z,1.15
2018-08-10T18:57:49.475Z,1.40
2018-08-10T19:00:19.813Z,1.43
2018-08-10T19:02:48.748Z,1.10
2018-08-10T19:05:18.289Z,1.60
2018-08-10T19:07:48.003Z,1.50
2018-08-10T19:10:21.102Z,1.20
2018-08-10T19:12:50.464Z,1.00
2018-08-10T19:15:19.447Z,1.12
2018-08-10T19:17:48.893Z,1.00
2018-08-10T19:20:17.987Z,1.20
2018-08-10T19:22:47.396Z,0.90
2018-08-10T19:25:16.923Z,1.20
2018-08-10T19:27:46.493Z,6.33
2018-08-10T19:30:17.939Z,5.10
2018-08-10T19:32:48.001Z,2.02
2018-08-10T19:35:18.085Z,1.47
2018-08-10T19:37:47.511Z,2.75
2018-08-10T19:40:17.719Z,3.80
2018-08-10T19:42:46.769Z,1.92
2018-08-10T19:45:16.463Z,3.55
2018-08-10T19:47:45.567Z,2.12
2018-08-10T19:50:15.939Z,2.35
2018-08-10T19:52:44.971Z,1.52
2018-08-10T19:55:15.287Z,1.42
2018-08-10T19:57:44.318Z,1.87
2018-08-10T20:00:15.849Z,1.82
2018-08-10T20:02:47.255Z,1.80
2018-08-10T20:05:16.680Z,1.47
2018-08-10T20:07:46.559Z,1.57
2018-08-10T20:10:15.761Z,2.10
2018-08-10T20:12:45.000Z,1.52
2018-08-10T20:15:16.916Z,1.72
2018-08-10T20:17:46.477Z,1.77
2018-08-10T20:20:17.272Z,1.90
2018-08-10T20:22:46.544Z,2.20
2018-08-10T20:25:16.292Z,2.10
2018-08-10T20:27:45.322Z,2.17
2018-08-10T20:30:16.114Z,2.02
2018-08-10T20:32:46.066Z,2.42
2018-08-10T20:35:17.084Z,2.00
2018-08-10T20:37:46.045Z,2.87
2018-08-10T20:40:17.506Z,2.42
2018-08-10T20:42:47.112Z,2.37
2018-08-10T20:45:17.042Z,2.92
2018-08-10T20:47:45.978Z,2.62
2018-08-10T20:50:16.893Z,2.60
2018-08-10T20:52:45.886Z,2.37
2018-08-10T20:55:14.901Z,2.60
2018-08-10T20:57:44.866Z,2.45
2018-08-10T21:00:13.848Z,2.67
2018-08-10T21:02:44.367Z,2.52
2018-08-10T21:05:14.312Z,3.02
2018-08-10T21:07:44.325Z,2.50
2018-08-10T21:10:14.856Z,4.08
2018-08-10T21:12:45.147Z,2.85
2018-08-10T21:15:15.177Z,2.80
2018-08-10T21:17:44.980Z,5.45
2018-08-10T21:20:15.219Z,4.12
2018-08-10T21:22:44.599Z,2.80
2018-08-10T21:25:14.098Z,2.87
2018-08-10T21:27:44.159Z,2.60
2018-08-10T21:30:16.450Z,2.12
2018-08-10T21:32:45.761Z,2.30
2018-08-10T21:35:15.099Z,2.20
2018-08-10T21:37:44.183Z,2.08
2018-08-10T21:40:13.427Z,2.42
2018-08-10T21:42:42.897Z,2.70
2018-08-10T21:45:11.853Z,2.60
2018-08-10T21:47:41.154Z,2.67
2018-08-10T21:50:12.233Z,2.47
2018-08-10T21:52:42.438Z,2.47
2018-08-10T21:55:11.662Z,2.50
2018-08-10T21:57:40.974Z,2.60
2018-08-10T22:00:21.578Z,2.72
2018-08-10T22:02:50.640Z,2.80
2018-08-10T22:05:19.592Z,2.70
2018-08-10T22:07:48.532Z,2.70
2018-08-10T22:10:17.924Z,2.95
2018-08-10T22:12:48.002Z,4.03
2018-08-10T22:15:22.920Z,3.00
2018-08-10T22:17:57.235Z,3.00
2018-08-10T22:20:26.233Z,3.02
2018-08-10T22:22:55.215Z,2.80
2018-08-10T22:25:24.538Z,2.80
2018-08-10T22:27:53.558Z,2.80
2018-08-10T22:30:22.569Z,3.00
2018-08-10T22:32:52.058Z,3.00
2018-08-10T22:35:21.142Z,2.98
2018-08-10T22:37:50.648Z,2.58
2018-08-10T22:40:19.786Z,2.60
2018-08-10T22:42:48.771Z,2.98
2018-08-10T22:45:17.811Z,2.72
2018-08-10T22:47:46.740Z,2.45
2018-08-10T22:50:15.670Z,2.52
2018-08-10T22:52:45.073Z,2.55
2018-08-10T22:55:14.070Z,2.52
2018-08-10T22:57:43.334Z,2.47
2018-08-10T23:00:12.674Z,2.67
2018-08-10T23:02:41.743Z,2.40
2018-08-10T23:05:11.052Z,2.70
2018-08-10T23:07:40.029Z,2.62
2018-08-10T23:10:10.611Z,2.35
2018-08-10T23:12:39.588Z,2.22
2018-08-10T23:15:09.456Z,2.20
2018-08-10T23:17:39.378Z,2.10
2018-08-10T23:20:10.390Z,2.42
2018-08-10T23:22:39.753Z,2.00
2018-08-10T23:25:11.153Z,2.12
2018-08-10T23:27:41.592Z,2.30
2018-08-10T23:30:12.845Z,2.20
2018-08-10T23:32:42.153Z,1.70
2018-08-10T23:35:11.136Z,1.50
2018-08-10T23:37:40.517Z,1.90
2018-08-10T23:40:12.390Z,1.70
2018-08-10T23:42:41.333Z,1.75
2018-08-10T23:45:11.921Z,1.50
2018-08-10T23:47:41.823Z,1.50
2018-08-10T23:50:14.123Z,1.55
2018-08-10T23:52:43.371Z,1.47
2018-08-10T23:55:12.893Z,1.80
2018-08-10T23:57:42.186Z,1.65
